Time;durP1;ratioP1;P1;durP2;ratioP2;P2;SDS_P1;SDS_P2;PMS_P1;PMS_P2;Temp;Humidity;BMP_temperature;BMP_pressure;BME280_temperature;BME280_humidity;BME280_pressure;Samples;Min_cycle;Max_cycle;Signal;HPM_P1;HPM_P2
2023/10/31 00:01:49;;;;;;;0.68;0.30;;;11.30;99.90;;;;;;5024122;28;20029;-88
2023/10/31 00:04:15;;;;;;;0.90;0.30;;;11.00;99.90;;;;;;5026539;28;20033;-87
2023/10/31 00:06:41;;;;;;;0.60;0.20;;;10.80;99.90;;;;;;5010700;28;20486;-88
2023/10/31 00:09:07;;;;;;;0.45;0.20;;;10.60;99.90;;;;;;5010338;28;20120;-90
2023/10/31 00:11:33;;;;;;;0.93;0.20;;;10.60;99.90;;;;;;5021883;28;20061;-89
2023/10/31 00:13:59;;;;;;;0.93;0.20;;;10.50;99.90;;;;;;4996712;28;20052;-88
2023/10/31 00:16:24;;;;;;;0.85;0.13;;;10.40;99.90;;;;;;5013686;28;20029;-91
2023/10/31 00:18:50;;;;;;;1.55;0.20;;;10.30;99.90;;;;;;5011174;28;20409;-86
2023/10/31 00:21:16;;;;;;;1.33;0.10;;;10.30;99.90;;;;;;5025584;28;20030;-90
2023/10/31 00:23:46;;;;;;;1.38;0.20;;;10.30;99.90;;;;;;4994308;28;20108;-86
2023/10/31 00:26:12;;;;;;;;;;;10.20;99.90;;;;;;5027935;28;20041;-86
2023/10/31 00:28:40;;;;;;;0.82;0.10;;;10.10;99.90;;;;;;5026814;28;20135;-87
2023/10/31 00:31:07;;;;;;;1.42;0.20;;;10.10;99.90;;;;;;5008804;28;20045;-90
2023/10/31 00:33:37;;;;;;;1.10;0.10;;;10.00;99.90;;;;;;5026914;28;20063;-88
2023/10/31 00:36:03;;;;;;;1.83;0.10;;;10.00;99.90;;;;;;5007994;28;20064;-88
2023/10/31 00:38:28;;;;;;;1.55;0.10;;;10.00;99.90;;;;;;5025330;28;20030;-88
2023/10/31 00:40:55;;;;;;;1.30;0.10;;;10.00;99.90;;;;;;5009214;28;20029;-89
2023/10/31 00:43:21;;;;;;;1.55;0.20;;;10.00;99.90;;;;;;4993421;28;20034;-87
2023/10/31 00:45:47;;;;;;;1.02;0.20;;;9.90;99.90;;;;;;5016760;28;20033;-87
2023/10/31 00:48:12;;;;;;;0.73;0.10;;;10.00;99.90;;;;;;4995993;28;20490;-90
2023/10/31 00:50:38;;;;;;;0.68;0.10;;;9.90;99.90;;;;;;5009741;28;20033;-86
2023/10/31 00:53:04;;;;;;;0.77;0.20;;;10.00;99.90;;;;;;5009366;28;20036;-87
2023/10/31 00:55:29;;;;;;;1.30;0.30;;;10.00;99.90;;;;;;5012631;28;20116;-88
2023/10/31 00:57:55;;;;;;;1.15;0.20;;;10.00;99.90;;;;;;5012651;28;20112;-87
2023/10/31 01:00:21;;;;;;;1.63;0.38;;;10.00;99.90;;;;;;5010569;28;20050;-87
2023/10/31 01:02:46;;;;;;;1.35;0.20;;;10.00;99.90;;;;;;5019735;28;20025;-87
2023/10/31 01:05:12;;;;;;;0.68;0.20;;;10.00;99.90;;;;;;5018940;28;20283;-86
2023/10/31 01:07:38;;;;;;;1.15;0.20;;;10.00;99.90;;;;;;5028520;28;20017;-88
2023/10/31 01:10:04;;;;;;;2.47;0.35;;;10.00;99.90;;;;;;5010168;28;20066;-86
2023/10/31 01:12:30;;;;;;;1.95;0.30;;;10.00;99.90;;;;;;5024118;28;20057;-89
2023/10/31 01:14:56;;;;;;;1.70;0.30;;;9.90;99.90;;;;;;5025373;28;20160;-89
2023/10/31 01:17:22;;;;;;;1.38;0.43;;;9.90;99.90;;;;;;4992860;28;20116;-90
2023/10/31 01:19:48;;;;;;;1.05;0.30;;;10.00;99.90;;;;;;4995085;28;20026;-90
2023/10/31 01:22:14;;;;;;;1.75;0.40;;;9.90;99.90;;;;;;4996655;28;20040;-87
2023/10/31 01:24:39;;;;;;;2.60;0.40;;;9.90;99.90;;;;;;5009787;28;20108;-88
2023/10/31 01:27:05;;;;;;;4.30;1.00;;;9.90;99.90;;;;;;4994546;28;20393;-89
2023/10/31 01:29:31;;;;;;;2.95;1.15;;;9.80;99.90;;;;;;5012379;28;20025;-90
2023/10/31 01:31:56;;;;;;;4.85;1.77;;;9.90;99.90;;;;;;4992073;28;20029;-90
2023/10/31 01:34:23;;;;;;;4.97;2.75;;;9.80;99.90;;;;;;4996182;28;20527;-89
2023/10/31 01:36:48;;;;;;;8.65;4.22;;;9.80;99.90;;;;;;4994781;28;20041;-90
2023/10/31 01:39:14;;;;;;;9.55;4.32;;;9.80;99.90;;;;;;5010900;28;20040;-89
2023/10/31 01:41:43;;;;;;;9.98;4.80;;;9.80;99.90;;;;;;5027624;28;20041;-89
2023/10/31 01:44:09;;;;;;;10.45;4.70;;;9.80;99.90;;;;;;5009970;28;20060;-89
2023/10/31 01:46:35;;;;;;;10.05;4.78;;;9.80;99.90;;;;;;5008862;28;20044;-88
2023/10/31 01:49:01;;;;;;;10.48;7.05;;;9.80;99.90;;;;;;5025080;28;20029;-92
2023/10/31 01:51:29;;;;;;;13.63;7.82;;;9.80;99.90;;;;;;5010328;28;20033;-93
2023/10/31 01:53:56;;;;;;;14.10;8.82;;;9.80;99.90;;;;;;4993305;28;20026;-93
2023/10/31 01:56:22;;;;;;;13.20;9.75;;;9.80;99.90;;;;;;5012668;28;20041;-89
2023/10/31 01:58:49;;;;;;;14.65;9.20;;;9.80;99.90;;;;;;5027375;28;20120;-89
2023/10/31 02:01:16;;;;;;;14.75;9.32;;;9.80;99.90;;;;;;4993997;28;20075;-89
2023/10/31 02:03:42;;;;;;;13.32;8.88;;;9.90;99.90;;;;;;5023383;28;20025;-89
2023/10/31 02:06:07;;;;;;;14.02;9.32;;;9.90;99.90;;;;;;5012780;28;20680;-88
2023/10/31 02:08:33;;;;;;;14.98;9.27;;;9.90;99.90;;;;;;5005684;28;20044;-89
2023/10/31 02:10:59;;;;;;;16.23;11.15;;;9.90;99.90;;;;;;4991058;28;20029;-89
2023/10/31 02:13:25;;;;;;;16.60;11.13;;;9.90;99.90;;;;;;4994085;28;20034;-91
2023/10/31 02:15:51;;;;;;;15.48;11.95;;;9.90;99.90;;;;;;5008397;28;20061;-89
2023/10/31 02:18:16;;;;;;;16.33;12.48;;;9.90;99.90;;;;;;4994030;28;20116;-89
2023/10/31 02:20:42;;;;;;;15.80;12.18;;;9.90;99.90;;;;;;5006206;28;20502;-88
2023/10/31 02:23:08;;;;;;;16.08;11.40;;;9.90;99.90;;;;;;5027663;28;20027;-91
2023/10/31 02:25:34;;;;;;;15.10;11.00;;;10.00;99.90;;;;;;5012378;28;20060;-90
2023/10/31 02:27:59;;;;;;;12.88;10.00;;;10.00;99.90;;;;;;5024587;28;20044;-91
2023/10/31 02:30:26;;;;;;;12.02;9.93;;;10.00;99.90;;;;;;4995394;28;20095;-88
2023/10/31 02:32:52;;;;;;;13.27;8.40;;;10.00;99.90;;;;;;5017728;28;20034;-89
2023/10/31 02:35:18;;;;;;;11.25;8.18;;;10.00;99.90;;;;;;5025618;28;20478;-91
2023/10/31 02:37:47;;;;;;;12.75;8.23;;;10.00;99.90;;;;;;4993218;28;20495;-88
2023/10/31 02:40:13;;;;;;;12.40;7.93;;;10.00;99.90;;;;;;4992891;28;20122;-90
2023/10/31 02:42:39;;;;;;;9.52;6.45;;;10.00;99.90;;;;;;5010970;28;20030;-91
2023/10/31 02:45:06;;;;;;;7.70;4.85;;;10.00;99.90;;;;;;4991574;28;20054;-88
2023/10/31 02:47:32;;;;;;;12.63;8.27;;;10.00;99.90;;;;;;4984807;28;20084;-89
2023/10/31 02:49:57;;;;;;;12.30;9.10;;;10.00;99.90;;;;;;4991384;28;20445;-92
2023/10/31 02:52:23;;;;;;;17.25;11.18;;;10.10;99.90;;;;;;5014484;28;20038;-90
2023/10/31 02:54:49;;;;;;;15.32;9.80;;;10.10;99.90;;;;;;5006114;28;20429;-91
2023/10/31 02:57:16;;;;;;;14.95;9.82;;;10.10;99.90;;;;;;4986796;28;20449;-89
2023/10/31 02:59:42;;;;;;;14.05;9.82;;;10.10;99.90;;;;;;4999883;28;20022;-90
2023/10/31 03:02:07;;;;;;;13.25;9.80;;;10.10;99.90;;;;;;5005733;28;20034;-90
2023/10/31 03:04:33;;;;;;;13.98;10.50;;;10.10;99.90;;;;;;4986239;28;20121;-89
2023/10/31 03:06:59;;;;;;;11.95;9.02;;;10.10;99.90;;;;;;5002002;28;20027;-88
2023/10/31 03:09:24;;;;;;;12.82;9.15;;;10.10;99.90;;;;;;5007191;28;20037;-89
2023/10/31 03:11:50;;;;;;;11.75;8.82;;;10.10;99.90;;;;;;5004786;28;20064;-92
2023/10/31 03:14:16;;;;;;;12.35;8.15;;;10.10;99.90;;;;;;5003470;28;20066;-91
2023/10/31 03:16:42;;;;;;;9.75;6.65;;;10.10;99.90;;;;;;5019318;28;20474;-90
2023/10/31 03:19:08;;;;;;;9.50;7.07;;;10.10;99.90;;;;;;5007977;28;20504;-91
2023/10/31 03:21:33;;;;;;;15.13;7.93;;;10.10;99.90;;;;;;5005126;28;20026;-88
2023/10/31 03:23:59;;;;;;;7.63;5.93;;;10.10;99.90;;;;;;4991411;28;20085;-91
2023/10/31 03:26:25;;;;;;;10.13;6.10;;;10.10;99.90;;;;;;4990468;28;20031;-89
2023/10/31 03:28:51;;;;;;;13.80;9.52;;;10.10;99.90;;;;;;5006500;28;20030;-87
2023/10/31 03:31:17;;;;;;;11.95;8.32;;;10.10;99.90;;;;;;5010859;28;20048;-90
2023/10/31 03:33:43;;;;;;;21.13;14.40;;;10.10;99.90;;;;;;4989563;28;20076;-89
2023/10/31 03:36:09;;;;;;;19.33;13.32;;;10.10;99.90;;;;;;4988647;28;20026;-91
2023/10/31 03:38:35;;;;;;;20.45;13.23;;;10.10;99.90;;;;;;5006452;28;20562;-90
2023/10/31 03:41:02;;;;;;;22.05;15.23;;;10.10;99.90;;;;;;5008766;28;20076;-89
2023/10/31 03:43:28;;;;;;;20.75;14.68;;;10.10;99.90;;;;;;5010180;28;20041;-88
2023/10/31 03:45:55;;;;;;;23.80;15.10;;;10.10;99.90;;;;;;4991674;28;20026;-89
2023/10/31 03:48:21;;;;;;;18.52;12.63;;;10.10;99.90;;;;;;5026855;28;20405;-91
2023/10/31 03:50:47;;;;;;;19.10;13.48;;;10.10;99.90;;;;;;5009973;28;20022;-89
2023/10/31 03:53:12;;;;;;;17.02;11.90;;;10.10;99.90;;;;;;5024763;28;20033;-88
2023/10/31 03:55:38;;;;;;;16.80;10.77;;;10.10;99.90;;;;;;5022634;28;20051;-89
2023/10/31 03:58:05;;;;;;;17.63;12.90;;;10.10;99.90;;;;;;5008232;28;20036;-89
2023/10/31 04:00:31;;;;;;;18.80;12.50;;;10.10;99.90;;;;;;5021064;28;20034;-90
2023/10/31 04:02:57;;;;;;;17.60;13.13;;;10.10;99.90;;;;;;4995298;28;20098;-90
2023/10/31 04:05:23;;;;;;;20.77;14.60;;;10.20;99.90;;;;;;5006263;28;20022;-92
2023/10/31 04:07:49;;;;;;;22.45;14.73;;;10.10;99.90;;;;;;4993791;28;20024;-89
2023/10/31 04:10:16;;;;;;;20.45;13.88;;;10.20;99.90;;;;;;5008698;28;20402;-90
2023/10/31 04:12:42;;;;;;;17.55;13.57;;;10.10;99.90;;;;;;5021739;28;20132;-88
2023/10/31 04:15:09;;;;;;;20.27;13.13;;;10.20;99.90;;;;;;5010369;28;20592;-91
2023/10/31 04:17:35;;;;;;;18.85;13.80;;;10.20;99.90;;;;;;5012577;28;20041;-91
2023/10/31 04:20:01;;;;;;;18.88;12.32;;;10.20;99.90;;;;;;4995197;28;20408;-88
2023/10/31 04:22:27;;;;;;;17.17;11.80;;;10.20;99.90;;;;;;5029067;28;20045;-89
2023/10/31 04:24:52;;;;;;;13.38;9.63;;;10.20;99.90;;;;;;4995492;28;20488;-89
2023/10/31 04:27:18;;;;;;;14.95;8.68;;;10.20;99.90;;;;;;5028665;28;20099;-88
2023/10/31 04:29:44;;;;;;;12.45;8.25;;;10.20;99.90;;;;;;4991918;28;20021;-87
2023/10/31 04:32:10;;;;;;;8.85;6.68;;;10.20;99.90;;;;;;5013895;28;20398;-87
2023/10/31 04:34:36;;;;;;;11.18;6.85;;;10.20;99.90;;;;;;5013787;28;20048;-87
2023/10/31 04:37:02;;;;;;;7.78;5.95;;;10.20;99.90;;;;;;5020849;28;20065;-88
2023/10/31 04:39:27;;;;;;;8.73;5.40;;;10.20;99.90;;;;;;5025470;28;20029;-88
2023/10/31 04:41:53;;;;;;;10.75;5.15;;;10.20;99.90;;;;;;5013424;28;20034;-89
2023/10/31 04:44:19;;;;;;;7.05;4.38;;;10.10;99.90;;;;;;5010177;28;20076;-89
2023/10/31 04:46:44;;;;;;;5.97;4.07;;;10.20;99.90;;;;;;5009761;28;20117;-86
2023/10/31 04:49:10;;;;;;;6.75;3.80;;;10.10;99.90;;;;;;5012436;28;20018;-88
2023/10/31 04:51:37;;;;;;;5.28;3.25;;;10.10;99.90;;;;;;5026557;28;20029;-87
2023/10/31 04:54:03;;;;;;;6.07;3.10;;;10.10;99.90;;;;;;5012920;28;20095;-87
2023/10/31 04:56:31;;;;;;;5.00;2.60;;;10.00;99.90;;;;;;5028588;28;20033;-88
2023/10/31 04:58:57;;;;;;;5.47;3.08;;;10.10;99.90;;;;;;5010256;28;20454;-89
2023/10/31 05:01:24;;;;;;;8.18;3.72;;;10.10;99.90;;;;;;5007583;28;20025;-86
2023/10/31 05:03:49;;;;;;;6.43;3.50;;;10.10;99.90;;;;;;5027667;28;20033;-87
2023/10/31 05:06:20;;;;;;;6.32;4.30;;;10.00;99.90;;;;;;5021673;28;20029;-89
2023/10/31 05:08:46;;;;;;;7.28;4.15;;;10.10;99.90;;;;;;4995129;28;20103;-86
2023/10/31 05:11:11;;;;;;;7.10;4.40;;;10.10;99.90;;;;;;5009511;28;20486;-87
2023/10/31 05:13:38;;;;;;;10.15;5.80;;;10.10;99.90;;;;;;5027855;28;20030;-88
2023/10/31 05:16:04;;;;;;;10.38;5.90;;;10.10;99.90;;;;;;5011934;28;20095;-89
2023/10/31 05:18:30;;;;;;;9.57;6.35;;;10.10;99.90;;;;;;5003278;28;20069;-88
2023/10/31 05:20:55;;;;;;;9.23;5.93;;;10.10;99.90;;;;;;4996096;28;20029;-88
2023/10/31 05:23:21;;;;;;;8.93;6.97;;;10.00;99.90;;;;;;5023479;28;20107;-87
2023/10/31 05:25:47;;;;;;;10.27;7.15;;;10.10;99.90;;;;;;4991034;28;20486;-89
2023/10/31 05:28:13;;;;;;;12.40;8.35;;;10.00;99.90;;;;;;5008355;28;20093;-86
2023/10/31 05:30:38;;;;;;;13.60;8.63;;;10.00;99.90;;;;;;4993941;28;20037;-88
2023/10/31 05:33:04;;;;;;;10.07;7.05;;;10.00;99.90;;;;;;4995736;28;20045;-88
2023/10/31 05:35:29;;;;;;;10.52;6.03;;;10.00;99.90;;;;;;5019979;28;20041;-89
2023/10/31 05:37:55;;;;;;;8.63;6.30;;;10.00;99.90;;;;;;5011220;28;20030;-90
2023/10/31 05:40:24;;;;;;;10.70;6.38;;;9.90;99.90;;;;;;4995011;28;20089;-87
2023/10/31 05:42:50;;;;;;;9.07;6.15;;;9.90;99.90;;;;;;4994847;28;20026;-88
2023/10/31 05:45:16;;;;;;;9.63;5.05;;;9.90;99.90;;;;;;5025125;28;20042;-86
2023/10/31 05:47:41;;;;;;;12.82;6.88;;;9.90;99.90;;;;;;5026316;28;20033;-88
2023/10/31 05:50:08;;;;;;;8.68;5.60;;;9.90;99.90;;;;;;5024068;28;20124;-86
2023/10/31 05:52:34;;;;;;;8.80;5.35;;;9.90;99.90;;;;;;5011546;28;20064;-88
2023/10/31 05:55:00;;;;;;;8.52;4.60;;;9.90;99.90;;;;;;5006573;28;20048;-89
2023/10/31 05:57:26;;;;;;;6.60;3.75;;;9.90;99.90;;;;;;5027453;28;20030;-89
2023/10/31 05:59:51;;;;;;;7.82;3.42;;;9.80;99.90;;;;;;5025067;28;20026;-88
2023/10/31 06:02:17;;;;;;;6.78;3.58;;;9.80;99.90;;;;;;5008451;28;20037;-89
2023/10/31 06:04:43;;;;;;;5.30;2.78;;;9.80;99.90;;;;;;5027369;28;20449;-87
2023/10/31 06:07:11;;;;;;;6.60;3.08;;;9.80;99.90;;;;;;5011286;28;20034;-88
2023/10/31 06:09:37;;;;;;;5.75;4.53;;;9.80;99.90;;;;;;5011721;28;20021;-88
2023/10/31 06:12:02;;;;;;;5.50;3.47;;;9.80;99.90;;;;;;4993202;28;20815;-89
2023/10/31 06:14:31;;;;;;;8.50;4.10;;;9.80;99.90;;;;;;4989744;28;20045;-89
2023/10/31 06:16:59;;;;;;;7.22;4.20;;;9.70;99.90;;;;;;5010566;28;20128;-89
2023/10/31 06:19:24;;;;;;;6.70;3.20;;;9.80;99.90;;;;;;5008211;28;20026;-92
2023/10/31 06:21:50;;;;;;;5.03;2.15;;;9.70;99.90;;;;;;4995040;28;20428;-91
2023/10/31 06:24:16;;;;;;;3.75;2.33;;;9.70;99.90;;;;;;5023750;28;20394;-88
2023/10/31 06:26:41;;;;;;;4.25;1.25;;;9.70;99.90;;;;;;5025562;28;20501;-91
2023/10/31 06:29:17;;;;;;;3.38;1.10;;;9.70;99.90;;;;;;4987562;28;20042;-87
2023/10/31 06:31:47;;;;;;;4.45;0.98;;;9.70;99.90;;;;;;5009133;28;20072;-89
2023/10/31 06:38:01;;;;;;;;;;;;;;;;;;;;;
2023/10/31 06:40:37;;;;;;;1.90;0.50;;;9.60;99.90;;;;;;5021428;28;20063;-85
2023/10/31 06:43:10;;;;;;;2.40;0.60;;;9.60;99.90;;;;;;5007018;28;20040;-87
2023/10/31 06:45:36;;;;;;;2.28;0.93;;;9.60;99.90;;;;;;5016029;28;20053;-86
2023/10/31 06:51:23;;;;;;;3.72;1.73;;;9.60;99.90;;;;;;5001868;28;20570;-86
2023/10/31 06:55:00;;;;;;;3.30;1.13;;;9.60;99.90;;;;;;5022539;28;20537;-88
2023/10/31 06:57:22;;;;;;;3.15;1.27;;;9.60;99.90;;;;;;4999451;28;20065;-87
2023/10/31 06:59:57;;;;;;;5.80;2.63;;;9.60;99.90;;;;;;5013972;28;20128;-89
2023/10/31 07:03:44;;;;;;;4.90;2.78;;;9.70;99.90;;;;;;4996916;28;20026;-92
2023/10/31 07:07:08;;;;;;;6.60;2.97;;;9.70;99.90;;;;;;4927387;28;20395;-91
2023/10/31 07:09:37;;;;;;;6.57;3.97;;;9.70;99.90;;;;;;4895179;29;20591;-87
2023/10/31 07:12:18;;;;;;;6.72;4.15;;;9.80;99.90;;;;;;4895534;29;20528;-89
2023/10/31 07:15:46;;;;;;;10.45;6.90;;;9.80;99.90;;;;;;4896572;29;20079;-90
2023/10/31 07:18:11;;;;;;;12.45;6.65;;;9.90;99.90;;;;;;4905688;29;20047;-87
2023/10/31 07:28:23;;;;;;;;;;;;;;;;;;;;;
2023/10/31 07:31:38;;;;;;;8.90;5.25;;;9.90;99.90;;;;;;4889674;29;20079;-88
2023/10/31 07:34:15;;;;;;;12.40;7.90;;;9.90;99.90;;;;;;4905004;29;20066;-92
2023/10/31 07:36:41;;;;;;;17.10;10.77;;;9.90;99.90;;;;;;4889939;29;20051;-88
2023/10/31 07:42:50;;;;;;;18.55;11.07;;;10.00;99.90;;;;;;4910257;28;20130;-89
2023/10/31 07:45:16;;;;;;;16.13;10.90;;;10.00;99.90;;;;;;4983804;28;20054;-87
2023/10/31 07:47:42;;;;;;;21.38;14.07;;;10.00;99.90;;;;;;5020712;28;20038;-89
2023/10/31 07:50:08;;;;;;;21.05;13.23;;;10.10;99.90;;;;;;4986132;28;20398;-87
2023/10/31 07:52:34;;;;;;;17.52;12.27;;;10.10;99.90;;;;;;5022408;28;20042;-87
2023/10/31 07:54:59;;;;;;;19.50;13.43;;;10.10;99.90;;;;;;5023927;28;20432;-89
2023/10/31 07:57:25;;;;;;;17.80;12.75;;;10.20;99.90;;;;;;5024848;28;20033;-87
2023/10/31 07:59:51;;;;;;;17.98;12.73;;;10.20;99.90;;;;;;4988046;28;20105;-89
2023/10/31 08:02:16;;;;;;;20.70;13.52;;;10.20;99.90;;;;;;4983289;28;20382;-89
2023/10/31 08:04:42;;;;;;;16.60;12.80;;;10.30;99.90;;;;;;5001268;28;20053;-89
2023/10/31 08:07:08;;;;;;;18.48;11.23;;;10.30;99.90;;;;;;4998545;28;20455;-88
2023/10/31 08:09:33;;;;;;;13.30;8.95;;;10.40;99.90;;;;;;5018524;28;20538;-86
2023/10/31 08:11:59;;;;;;;16.48;11.95;;;10.40;99.90;;;;;;5009727;28;21364;-87
2023/10/31 08:14:24;;;;;;;16.70;12.18;;;10.50;99.90;;;;;;5000322;28;20090;-89
2023/10/31 08:16:50;;;;;;;19.05;14.05;;;10.60;99.90;;;;;;5017032;28;20049;-87
2023/10/31 08:19:16;;;;;;;21.95;15.45;;;10.60;99.90;;;;;;5003560;28;20022;-88
2023/10/31 08:21:41;;;;;;;20.77;14.82;;;10.60;99.90;;;;;;5016297;28;20085;-87
2023/10/31 08:24:07;;;;;;;20.45;14.05;;;10.60;99.90;;;;;;5018505;28;20089;-87
2023/10/31 08:26:34;;;;;;;19.80;14.02;;;10.70;99.90;;;;;;5018272;28;20129;-90
2023/10/31 08:29:00;;;;;;;19.10;14.27;;;10.60;99.90;;;;;;5002255;28;20393;-88
2023/10/31 08:31:25;;;;;;;16.98;13.93;;;10.70;99.90;;;;;;5018223;28;20033;-88
2023/10/31 08:33:51;;;;;;;21.17;15.35;;;10.60;99.90;;;;;;4998573;28;20109;-88
2023/10/31 08:36:17;;;;;;;19.65;14.57;;;10.60;99.90;;;;;;5002277;28;20468;-88
2023/10/31 08:38:42;;;;;;;16.85;12.45;;;10.70;99.90;;;;;;5008430;28;20108;-90
2023/10/31 08:41:08;;;;;;;16.73;12.05;;;10.80;99.90;;;;;;5017239;28;20545;-89
2023/10/31 08:43:34;;;;;;;14.73;10.80;;;11.00;99.90;;;;;;4999951;28;20080;-87
2023/10/31 08:46:00;;;;;;;14.18;11.23;;;11.20;99.90;;;;;;5007418;28;20053;-89
2023/10/31 08:48:26;;;;;;;16.15;10.98;;;11.40;99.90;;;;;;5003370;28;20034;-87
2023/10/31 08:50:52;;;;;;;15.80;11.50;;;11.50;99.90;;;;;;4980761;28;20026;-91
2023/10/31 08:53:19;;;;;;;13.57;10.52;;;11.60;99.90;;;;;;5015244;28;20141;-90
2023/10/31 08:55:44;;;;;;;16.73;10.02;;;11.40;99.90;;;;;;5017976;28;20033;-87
2023/10/31 08:58:14;;;;;;;14.48;10.30;;;11.50;99.90;;;;;;4998900;28;20038;-92
2023/10/31 09:00:43;;;;;;;14.50;9.82;;;11.30;99.90;;;;;;5016493;28;20027;-89
2023/10/31 09:03:09;;;;;;;16.77;9.13;;;11.40;99.90;;;;;;4997939;28;20095;-88
2023/10/31 09:05:44;;;;;;;16.23;9.57;;;11.50;99.90;;;;;;5019130;28;20037;-89
2023/10/31 09:08:12;;;;;;;13.68;9.15;;;11.50;99.90;;;;;;4998290;28;20108;-88
2023/10/31 09:10:45;;;;;;;14.35;9.43;;;11.60;99.90;;;;;;5002458;28;20140;-90
2023/10/31 09:13:25;;;;;;;14.63;9.38;;;11.50;99.90;;;;;;4982245;28;20502;-91
2023/10/31 09:15:51;;;;;;;13.65;8.18;;;11.50;99.90;;;;;;4998964;28;20125;-89
2023/10/31 09:18:16;;;;;;;11.75;7.82;;;11.50;99.90;;;;;;4984767;28;20554;-88
2023/10/31 09:20:46;;;;;;;10.88;8.05;;;11.50;99.90;;;;;;4998411;28;20105;-88
2023/10/31 09:23:14;;;;;;;13.88;8.15;;;11.50;99.90;;;;;;4982592;28;20506;-90
2023/10/31 09:25:50;;;;;;;9.45;6.65;;;11.40;99.90;;;;;;4984397;28;20036;-89
2023/10/31 09:28:17;;;;;;;11.57;7.38;;;11.50;99.90;;;;;;4983511;28;20053;-88
2023/10/31 09:30:53;;;;;;;;;;;;;;;;;;;;;
2023/10/31 09:33:40;;;;;;;13.32;7.43;;;11.70;99.90;;;;;;5003184;28;20038;-88
2023/10/31 09:36:06;;;;;;;11.23;7.07;;;11.60;99.90;;;;;;5001480;28;20153;-87
2023/10/31 09:38:31;;;;;;;10.30;6.45;;;11.70;99.90;;;;;;4998405;28;20064;-90
2023/10/31 09:40:57;;;;;;;13.20;7.15;;;12.10;99.90;;;;;;5019036;28;20053;-90
2023/10/31 09:43:23;;;;;;;11.40;7.32;;;12.40;99.90;;;;;;5014320;28;20161;-90
2023/10/31 09:45:49;;;;;;;8.98;6.63;;;12.30;99.90;;;;;;5001335;28;20137;-90
2023/10/31 09:48:15;;;;;;;10.82;6.45;;;12.50;99.90;;;;;;4996205;28;20038;-91
2023/10/31 09:50:41;;;;;;;13.65;7.63;;;12.80;99.90;;;;;;4995814;28;20105;-89
2023/10/31 09:53:08;;;;;;;8.63;6.80;;;12.80;99.90;;;;;;4995097;28;20037;-89
2023/10/31 09:55:34;;;;;;;12.48;8.50;;;12.60;99.90;;;;;;4983714;28;20026;-90
2023/10/31 09:58:00;;;;;;;11.95;7.70;;;12.50;99.90;;;;;;4983245;28;20033;-91
2023/10/31 10:00:26;;;;;;;11.35;8.57;;;12.60;99.90;;;;;;5003559;28;20034;-89
2023/10/31 10:02:54;;;;;;;11.48;7.45;;;12.70;99.90;;;;;;4998171;28;20192;-90
2023/10/31 10:05:20;;;;;;;10.90;7.55;;;12.90;99.90;;;;;;4982661;28;20072;-92
2023/10/31 10:07:46;;;;;;;10.25;8.13;;;12.70;99.90;;;;;;4988478;28;20053;-90
2023/10/31 10:10:12;;;;;;;11.85;8.30;;;12.30;99.90;;;;;;4975526;28;20489;-88
2023/10/31 10:12:40;;;;;;;12.02;8.90;;;12.40;99.90;;;;;;4997186;28;20064;-91
2023/10/31 10:15:07;;;;;;;14.65;9.63;;;12.30;99.90;;;;;;4995930;28;20030;-89
2023/10/31 10:17:32;;;;;;;11.57;9.32;;;12.20;99.90;;;;;;4998451;28;20112;-88
2023/10/31 10:20:11;;;;;;;13.00;8.98;;;12.20;99.90;;;;;;5001519;28;20109;-89
2023/10/31 10:22:44;;;;;;;12.18;9.68;;;12.60;99.90;;;;;;5015105;28;20164;-88
2023/10/31 10:25:15;;;;;;;13.68;9.88;;;12.80;99.90;;;;;;5014104;28;20038;-87
2023/10/31 10:27:45;;;;;;;14.75;10.50;;;12.90;99.90;;;;;;4998441;28;20034;-87
2023/10/31 10:30:12;;;;;;;13.18;9.40;;;12.70;99.90;;;;;;5009808;28;20049;-87
2023/10/31 10:32:38;;;;;;;15.43;9.77;;;12.60;99.90;;;;;;4994895;28;20107;-87
2023/10/31 10:35:04;;;;;;;12.80;9.45;;;12.50;99.90;;;;;;4996728;28;20397;-89
2023/10/31 10:37:30;;;;;;;12.38;9.13;;;12.50;99.90;;;;;;4998286;28;20459;-86
2023/10/31 10:39:59;;;;;;;11.18;9.98;;;12.50;99.90;;;;;;4982643;28;20111;-87
2023/10/31 10:42:35;;;;;;;10.60;9.50;;;12.60;99.90;;;;;;4998139;28;20490;-88
2023/10/31 10:45:05;;;;;;;11.30;8.52;;;12.50;99.90;;;;;;4993428;28;20506;-87
2023/10/31 10:47:31;;;;;;;;;;;12.50;99.90;;;;;;4980073;28;20038;-88
2023/10/31 10:50:01;;;;;;;12.02;7.07;;;12.80;99.90;;;;;;4998475;28;19914;-89
2023/10/31 10:52:41;;;;;;;9.98;7.75;;;13.10;99.90;;;;;;4982309;28;20049;-90
2023/10/31 10:55:19;;;;;;;8.20;7.28;;;13.30;99.90;;;;;;4985968;28;20041;-90
2023/10/31 10:58:00;;;;;;;10.32;6.63;;;13.50;99.90;;;;;;4982735;28;20065;-87
2023/10/31 11:00:26;;;;;;;7.72;5.93;;;13.60;99.90;;;;;;4997117;28;20033;-88
2023/10/31 11:02:56;;;;;;;8.32;6.53;;;13.60;99.90;;;;;;4983362;28;20028;-89
2023/10/31 11:05:24;;;;;;;10.10;6.57;;;13.20;99.90;;;;;;4979959;28;20399;-86
2023/10/31 11:07:51;;;;;;;10.95;6.05;;;13.20;99.90;;;;;;4993723;28;20121;-90
2023/10/31 11:10:18;;;;;;;7.78;4.93;;;13.00;99.90;;;;;;5002018;28;20474;-87
2023/10/31 11:12:44;;;;;;;9.30;7.38;;;13.20;99.90;;;;;;4996693;28;20042;-89
2023/10/31 11:15:14;;;;;;;8.98;7.35;;;13.30;99.90;;;;;;4997128;28;20042;-87
2023/10/31 11:17:41;;;;;;;;;;;13.40;99.90;;;;;;4998846;28;20034;-87
2023/10/31 11:20:10;;;;;;;12.88;8.52;;;13.40;99.90;;;;;;5015349;28;19910;-88
2023/10/31 11:22:40;;;;;;;9.93;7.28;;;13.20;99.90;;;;;;4992964;28;20037;-86
2023/10/31 11:25:10;;;;;;;11.18;10.05;;;13.40;99.90;;;;;;4995937;28;20038;-89
2023/10/31 11:27:36;;;;;;;;;;;13.30;99.90;;;;;;5004983;28;20428;-87
2023/10/31 11:30:07;;;;;;;15.45;9.80;;;13.10;99.90;;;;;;5014581;28;19910;-87
2023/10/31 11:32:33;;;;;;;10.48;8.88;;;13.00;99.90;;;;;;5018562;28;20172;-88
2023/10/31 11:35:00;;;;;;;11.77;8.57;;;13.00;99.90;;;;;;5016991;28;20068;-86
2023/10/31 11:37:31;;;;;;;19.23;13.75;;;13.00;99.90;;;;;;4982891;28;20022;-87
2023/10/31 11:40:16;;;;;;;13.27;10.05;;;12.80;99.90;;;;;;4999413;28;20041;-86
2023/10/31 11:42:42;;;;;;;15.65;12.05;;;13.30;99.90;;;;;;4999416;28;20026;-86
2023/10/31 11:45:08;;;;;;;14.82;12.00;;;13.40;99.90;;;;;;5000396;28;20175;-87
2023/10/31 11:47:50;;;;;;;24.08;16.48;;;13.50;99.90;;;;;;5001674;28;20030;-87
2023/10/31 11:50:17;;;;;;;17.52;14.60;;;13.30;99.90;;;;;;5002653;28;20049;-87
2023/10/31 11:52:43;;;;;;;15.45;11.98;;;13.60;99.90;;;;;;4998522;28;20364;-90
2023/10/31 11:55:10;;;;;;;13.57;10.82;;;14.00;99.90;;;;;;4982814;28;20121;-88
2023/10/31 11:57:37;;;;;;;19.55;14.20;;;14.00;99.90;;;;;;5015031;28;20545;-89
2023/10/31 12:00:04;;;;;;;23.85;17.95;;;13.90;99.90;;;;;;5014616;28;20037;-87
2023/10/31 12:02:38;;;;;;;21.42;16.40;;;13.70;99.90;;;;;;5002308;28;20044;-87
2023/10/31 12:05:08;;;;;;;21.73;15.40;;;13.60;99.90;;;;;;5015820;28;20434;-88
2023/10/31 12:07:43;;;;;;;;;;;13.50;99.90;;;;;;4998648;28;20037;-87
2023/10/31 12:10:09;;;;;;;24.17;16.13;;;13.40;99.90;;;;;;5002927;28;20140;-89
2023/10/31 12:12:35;;;;;;;18.23;12.80;;;13.50;99.90;;;;;;5004967;28;20050;-85
2023/10/31 12:15:08;;;;;;;16.23;11.93;;;13.70;99.90;;;;;;5002213;28;20501;-86
2023/10/31 12:17:34;;;;;;;18.10;12.93;;;13.50;99.90;;;;;;4997920;28;20029;-87
2023/10/31 12:20:08;;;;;;;14.18;10.70;;;13.50;99.90;;;;;;4997644;28;20026;-90
2023/10/31 12:22:34;;;;;;;15.07;10.93;;;13.40;99.90;;;;;;5015955;28;20101;-86
2023/10/31 12:25:04;;;;;;;15.38;9.85;;;13.30;99.90;;;;;;5000767;28;20498;-87
2023/10/31 12:27:49;;;;;;;22.08;14.60;;;13.40;99.90;;;;;;5000272;28;20033;-86
2023/10/31 12:30:21;;;;;;;23.27;15.45;;;13.20;99.90;;;;;;5017599;28;20034;-86
2023/10/31 12:32:55;;;;;;;19.95;13.20;;;12.90;99.90;;;;;;5001593;28;20034;-85
2023/10/31 12:35:22;;;;;;;21.55;14.80;;;12.80;99.90;;;;;;5010849;28;20026;-86
2023/10/31 12:37:49;;;;;;;16.73;12.43;;;12.80;99.90;;;;;;5003811;28;20034;-87
2023/10/31 12:40:18;;;;;;;16.30;10.98;;;12.90;99.90;;;;;;4995046;28;20033;-85
2023/10/31 12:42:45;;;;;;;15.90;9.75;;;13.10;99.90;;;;;;5001517;28;20379;-86
2023/10/31 12:45:15;;;;;;;12.43;9.70;;;12.90;99.90;;;;;;5002358;28;20562;-87
2023/10/31 12:47:41;;;;;;;15.00;11.35;;;12.90;99.90;;;;;;4998506;28;20026;-85
2023/10/31 12:50:13;;;;;;;13.35;8.40;;;12.90;99.90;;;;;;5017374;28;20486;-85
2023/10/31 12:52:55;;;;;;;16.95;10.77;;;12.80;99.90;;;;;;4999985;28;20101;-85
2023/10/31 12:55:22;;;;;;;12.77;9.02;;;12.70;99.90;;;;;;4987457;28;20026;-84
2023/10/31 12:57:49;;;;;;;15.70;10.43;;;12.90;99.90;;;;;;5000708;28;20041;-87
2023/10/31 13:00:18;;;;;;;17.90;11.95;;;12.90;99.90;;;;;;4998381;28;20100;-88
2023/10/31 13:02:44;;;;;;;12.27;7.78;;;13.10;99.90;;;;;;5005248;28;20031;-87
2023/10/31 13:05:12;;;;;;;11.27;8.60;;;13.20;99.90;;;;;;5014550;28;20037;-88
2023/10/31 13:07:37;;;;;;;18.00;10.95;;;13.30;99.90;;;;;;4998766;28;20026;-89
2023/10/31 13:10:10;;;;;;;21.10;12.63;;;13.00;99.90;;;;;;5000946;28;20038;-87